createdAt,value
2022-12-03T00:00:12.519Z,5.58
2022-12-03T00:02:41.725Z,5.72
2022-12-03T00:05:10.596Z,5.87
2022-12-03T00:07:38.363Z,5.59
2022-12-03T00:10:07.046Z,5.72
2022-12-03T00:12:34.760Z,5.34
2022-12-03T00:15:02.438Z,5.57
2022-12-03T00:17:31.205Z,5.80
2022-12-03T00:19:58.718Z,5.80
2022-12-03T00:22:26.154Z,5.83
2022-12-03T00:24:54.276Z,5.65
2022-12-03T00:27:22.160Z,5.48
2022-12-03T00:29:49.837Z,5.67
2022-12-03T00:32:17.643Z,5.61
2022-12-03T00:34:45.557Z,5.77
2022-12-03T00:37:13.187Z,5.64
2022-12-03T00:39:41.270Z,5.79
2022-12-03T00:42:08.892Z,5.30
2022-12-03T00:44:36.482Z,5.71
2022-12-03T00:47:04.607Z,5.80
2022-12-03T00:49:32.419Z,5.78
2022-12-03T00:51:59.970Z,5.63
2022-12-03T00:54:31.914Z,5.71
2022-12-03T00:57:02.037Z,5.96
2022-12-03T00:59:29.811Z,6.09
2022-12-03T01:01:58.088Z,6.11
2022-12-03T01:04:25.743Z,5.86
2022-12-03T01:06:53.518Z,5.80
2022-12-03T01:09:20.956Z,5.93
2022-12-03T01:11:48.675Z,5.72
2022-12-03T01:14:18.617Z,5.56
2022-12-03T01:16:48.034Z,5.55
2022-12-03T01:19:16.482Z,5.29
2022-12-03T01:21:49.569Z,5.74
2022-12-03T01:24:18.856Z,5.63
2022-12-03T01:26:46.605Z,5.69
2022-12-03T01:29:14.308Z,5.69
2022-12-03T01:32:00.820Z,5.79
2022-12-03T01:34:28.462Z,5.78
2022-12-03T01:36:56.195Z,5.97
2022-12-03T01:39:23.802Z,5.90
2022-12-03T01:41:52.510Z,5.99
2022-12-03T01:44:25.990Z,5.66
2022-12-03T01:46:54.846Z,6.04
2022-12-03T01:49:26.415Z,6.20
2022-12-03T01:51:54.928Z,6.13
2022-12-03T01:54:27.914Z,5.96
2022-12-03T01:56:55.590Z,6.05
2022-12-03T01:59:32.682Z,6.11
2022-12-03T02:02:08.731Z,6.00
2022-12-03T02:04:36.808Z,6.19
2022-12-03T02:07:24.376Z,6.23
2022-12-03T02:09:53.770Z,6.20
2022-12-03T02:12:28.524Z,6.25
2022-12-03T02:14:56.369Z,6.09
2022-12-03T02:17:24.589Z,6.05
2022-12-03T02:19:52.474Z,6.15
2022-12-03T02:22:31.298Z,6.06
2022-12-03T02:24:59.505Z,6.35
2022-12-03T02:27:29.918Z,6.54
2022-12-03T02:29:57.488Z,6.19
2022-12-03T02:32:25.563Z,5.82
2022-12-03T02:34:53.433Z,5.79
2022-12-03T02:37:24.589Z,6.06
2022-12-03T02:39:55.164Z,6.20
2022-12-03T02:42:35.319Z,6.18
2022-12-03T02:45:12.914Z,6.01
2022-12-03T02:47:46.348Z,5.87
2022-12-03T02:50:15.927Z,5.94
2022-12-03T02:52:44.530Z,6.03
2022-12-03T02:55:13.033Z,6.25
2022-12-03T02:57:41.039Z,6.00
2022-12-03T03:00:10.173Z,6.21
2022-12-03T03:02:39.002Z,6.21
2022-12-03T03:05:08.747Z,6.35
2022-12-03T03:07:36.682Z,6.39
2022-12-03T03:10:05.480Z,6.01
2022-12-03T03:12:37.722Z,5.99
2022-12-03T03:15:07.993Z,5.64
2022-12-03T03:17:35.824Z,5.83
2022-12-03T03:20:05.433Z,5.83
2022-12-03T03:22:39.295Z,6.01
2022-12-03T03:25:12.933Z,5.61
2022-12-03T03:27:41.149Z,5.78
2022-12-03T03:30:11.157Z,6.02
2022-12-03T03:32:39.045Z,5.97
2022-12-03T03:35:10.090Z,5.89
2022-12-03T03:37:38.474Z,5.34
2022-12-03T03:40:06.850Z,6.00
2022-12-03T03:42:35.041Z,5.70
2022-12-03T03:45:02.731Z,5.59
2022-12-03T03:47:30.402Z,6.03
2022-12-03T03:49:57.868Z,6.05
2022-12-03T03:52:26.013Z,5.74
2022-12-03T03:54:53.574Z,5.69
2022-12-03T03:57:21.219Z,5.56
2022-12-03T03:59:51.063Z,5.58
2022-12-03T04:02:23.289Z,5.36
2022-12-03T04:04:51.932Z,5.48
2022-12-03T04:07:20.184Z,5.60
2022-12-03T04:09:47.791Z,5.52
2022-12-03T04:12:34.393Z,5.82
2022-12-03T04:15:01.963Z,6.01
2022-12-03T04:17:29.797Z,5.59
2022-12-03T04:19:57.289Z,5.68
2022-12-03T04:22:39.982Z,5.99
2022-12-03T04:25:28.365Z,5.56
2022-12-03T04:28:14.645Z,5.85
2022-12-03T04:30:42.875Z,5.93
2022-12-03T04:33:29.241Z,5.63
2022-12-03T04:35:57.217Z,5.68
2022-12-03T04:38:24.820Z,5.75
2022-12-03T04:41:01.498Z,5.54
2022-12-03T04:43:30.483Z,5.86
2022-12-03T04:45:58.157Z,5.74
2022-12-03T04:48:25.886Z,5.86
2022-12-03T04:50:53.706Z,6.04
2022-12-03T04:53:21.309Z,5.81
2022-12-03T04:55:48.779Z,5.96
2022-12-03T04:58:17.639Z,5.51
2022-12-03T05:00:45.049Z,5.66
2022-12-03T05:03:12.902Z,5.51
2022-12-03T05:05:40.673Z,5.65
2022-12-03T05:08:08.370Z,5.38
2022-12-03T05:10:35.835Z,5.15
2022-12-03T05:13:03.686Z,5.27
2022-12-03T05:15:31.267Z,5.31
2022-12-03T05:17:58.817Z,5.45
2022-12-03T05:20:41.840Z,5.35
2022-12-03T05:23:13.677Z,5.56
2022-12-03T05:25:41.417Z,5.18
2022-12-03T05:28:09.122Z,5.03
2022-12-03T05:30:36.745Z,5.30
2022-12-03T05:33:04.729Z,5.18
2022-12-03T05:35:32.301Z,5.27
2022-12-03T05:37:59.789Z,5.27
2022-12-03T05:40:27.579Z,5.20
2022-12-03T05:42:55.091Z,5.36
2022-12-03T05:45:27.213Z,5.51
2022-12-03T05:47:56.918Z,5.21
2022-12-03T05:50:27.342Z,5.28
2022-12-03T05:52:55.628Z,5.27
2022-12-03T05:55:23.699Z,5.60
2022-12-03T05:57:51.426Z,5.42
2022-12-03T06:00:29.366Z,5.62
2022-12-03T06:02:57.566Z,5.32
2022-12-03T06:05:25.754Z,5.35
2022-12-03T06:07:53.623Z,5.64
2022-12-03T06:10:24.092Z,5.81
2022-12-03T06:12:52.300Z,5.91
2022-12-03T06:15:20.144Z,5.56
2022-12-03T06:17:47.915Z,5.65
2022-12-03T06:20:17.847Z,5.82
2022-12-03T06:22:45.511Z,6.05
2022-12-03T06:25:16.643Z,5.74
2022-12-03T06:27:44.710Z,5.26
2022-12-03T06:30:13.842Z,5.48
2022-12-03T06:32:41.634Z,5.75
2022-12-03T06:35:09.747Z,5.76
2022-12-03T06:37:37.336Z,5.92
2022-12-03T06:40:05.921Z,5.74
2022-12-03T06:42:33.447Z,6.07
2022-12-03T06:45:00.875Z,5.92
2022-12-03T06:47:30.849Z,6.13
2022-12-03T06:49:58.492Z,5.57
2022-12-03T06:52:26.085Z,5.78
2022-12-03T06:54:54.284Z,6.11
2022-12-03T06:57:22.047Z,5.67
2022-12-03T06:59:49.537Z,5.63
2022-12-03T07:02:17.539Z,5.82
2022-12-03T07:04:46.522Z,5.85
2022-12-03T07:07:18.198Z,5.93
2022-12-03T07:09:45.927Z,5.96
2022-12-03T07:12:13.585Z,6.07
2022-12-03T07:14:41.583Z,6.33
2022-12-03T07:17:09.336Z,6.01
2022-12-03T07:19:36.883Z,5.96
2022-12-03T07:22:04.683Z,6.03
2022-12-03T07:24:32.765Z,6.25
2022-12-03T07:27:00.218Z,6.28
2022-12-03T07:29:27.787Z,6.22
2022-12-03T07:31:55.720Z,6.36
2022-12-03T07:34:23.387Z,6.29
2022-12-03T07:36:50.963Z,6.10
2022-12-03T07:39:19.029Z,6.27
2022-12-03T07:41:47.026Z,6.52
2022-12-03T07:44:15.058Z,6.61
2022-12-03T07:46:43.331Z,6.52
2022-12-03T07:49:12.511Z,6.17
2022-12-03T07:51:40.608Z,6.55
2022-12-03T07:54:11.386Z,6.44
2022-12-03T07:56:39.005Z,6.53
2022-12-03T07:59:07.117Z,6.58
2022-12-03T08:01:35.060Z,6.93
2022-12-03T08:04:03.062Z,6.63
2022-12-03T08:06:30.626Z,6.54
2022-12-03T08:08:58.279Z,6.47
2022-12-03T08:11:29.105Z,6.25
2022-12-03T08:13:57.642Z,6.53
2022-12-03T08:16:25.371Z,6.44
2022-12-03T08:18:54.625Z,6.35
2022-12-03T08:21:23.269Z,6.48
2022-12-03T08:23:50.756Z,6.58
2022-12-03T08:26:26.567Z,6.32
2022-12-03T08:28:54.765Z,7.06
2022-12-03T08:31:32.386Z,7.17
2022-12-03T08:34:27.870Z,6.47
2022-12-03T08:37:02.394Z,6.64
2022-12-03T08:39:35.806Z,6.96
2022-12-03T08:42:32.281Z,6.84
2022-12-03T08:45:40.186Z,6.31
2022-12-03T08:48:37.705Z,6.11
2022-12-03T08:51:11.712Z,6.24
2022-12-03T08:53:50.873Z,6.21
2022-12-03T08:56:24.372Z,6.45
2022-12-03T08:59:27.841Z,6.59
2022-12-03T09:01:56.753Z,6.47
2022-12-03T09:04:44.376Z,6.72
2022-12-03T09:07:12.050Z,6.71
2022-12-03T09:09:40.321Z,6.26
2022-12-03T09:12:07.984Z,6.62
2022-12-03T09:14:36.075Z,6.57
2022-12-03T09:17:04.105Z,6.16
2022-12-03T09:19:31.558Z,6.53
2022-12-03T09:21:59.095Z,6.69
2022-12-03T09:24:26.898Z,6.83
2022-12-03T09:26:54.402Z,6.73
2022-12-03T09:29:22.013Z,7.05
2022-12-03T09:31:49.818Z,6.82
2022-12-03T09:34:17.239Z,6.61
2022-12-03T09:36:44.775Z,6.98
2022-12-03T09:39:12.564Z,6.55
2022-12-03T09:41:40.292Z,7.00
2022-12-03T09:44:12.276Z,7.01
2022-12-03T09:46:45.602Z,6.91
2022-12-03T09:49:15.996Z,7.36
2022-12-03T09:51:44.640Z,7.21
2022-12-03T09:54:24.908Z,7.26
2022-12-03T09:56:54.273Z,7.38
2022-12-03T09:59:23.938Z,7.21
2022-12-03T10:01:55.395Z,7.15
2022-12-03T10:04:23.522Z,7.50
2022-12-03T10:06:51.397Z,7.43
2022-12-03T10:09:24.072Z,7.03
2022-12-03T10:11:58.096Z,7.37
2022-12-03T10:14:25.742Z,7.52
2022-12-03T10:16:53.862Z,7.67
2022-12-03T10:19:29.423Z,7.76
2022-12-03T10:21:57.478Z,7.48
2022-12-03T10:24:28.915Z,7.85
2022-12-03T10:26:59.143Z,8.24
2022-12-03T10:29:33.597Z,7.79
2022-12-03T10:32:10.238Z,7.46
2022-12-03T10:34:40.100Z,7.28
2022-12-03T10:37:21.894Z,7.21
2022-12-03T10:39:56.185Z,7.35
2022-12-03T10:42:30.194Z,7.27
2022-12-03T10:45:16.660Z,7.75
2022-12-03T10:48:04.008Z,7.99
2022-12-03T10:50:32.303Z,8.04
2022-12-03T10:53:00.143Z,7.83
2022-12-03T10:55:29.972Z,8.14
2022-12-03T10:58:05.019Z,7.98
2022-12-03T11:00:32.794Z,8.03
2022-12-03T11:03:00.311Z,8.21
2022-12-03T11:05:28.580Z,8.35
2022-12-03T11:07:56.815Z,8.31
2022-12-03T11:10:24.602Z,8.98
2022-12-03T11:13:26.214Z,8.60
2022-12-03T11:15:54.544Z,8.61
2022-12-03T11:18:36.923Z,8.87
2022-12-03T11:21:10.153Z,9.24
2022-12-03T11:23:47.007Z,9.19
2022-12-03T11:26:18.798Z,9.56
2022-12-03T11:28:46.915Z,9.73
2022-12-03T11:31:37.443Z,9.77
2022-12-03T11:34:23.405Z,9.85
2022-12-03T11:37:17.579Z,9.76
2022-12-03T11:39:45.334Z,9.80
2022-12-03T11:42:25.991Z,9.86
2022-12-03T11:45:05.906Z,9.35
2022-12-03T11:47:46.594Z,9.49
2022-12-03T11:50:24.665Z,9.20
2022-12-03T11:53:01.127Z,8.88
2022-12-03T11:55:33.208Z,8.89
2022-12-03T11:58:06.409Z,9.02
2022-12-03T12:00:34.031Z,8.95
2022-12-03T12:03:01.845Z,9.28
2022-12-03T12:05:34.690Z,8.96
2022-12-03T12:08:02.900Z,9.07
2022-12-03T12:10:43.837Z,8.79
2022-12-03T12:13:28.362Z,8.80
2022-12-03T12:16:04.246Z,9.14
2022-12-03T12:18:44.868Z,9.11
2022-12-03T12:21:43.594Z,9.33
2022-12-03T12:24:31.363Z,9.00
2022-12-03T12:27:01.117Z,8.95
2022-12-03T12:29:29.211Z,8.77
2022-12-03T12:32:16.832Z,9.18
2022-12-03T12:34:47.204Z,8.57
2022-12-03T12:37:36.278Z,8.57
2022-12-03T12:40:15.790Z,8.78
2022-12-03T12:42:50.663Z,8.78
2022-12-03T12:45:19.985Z,8.84
2022-12-03T12:47:50.781Z,9.10
2022-12-03T12:50:19.156Z,8.67
2022-12-03T12:52:50.411Z,8.56
2022-12-03T12:55:18.919Z,8.82
2022-12-03T12:57:46.571Z,8.66
2022-12-03T13:00:24.571Z,8.81
2022-12-03T13:02:58.895Z,9.10
2022-12-03T13:05:27.924Z,9.14
2022-12-03T13:07:56.108Z,8.93
2022-12-03T13:10:34.650Z,9.31
2022-12-03T13:13:14.662Z,9.20
2022-12-03T13:15:49.404Z,9.26
2022-12-03T13:18:26.579Z,9.06
2022-12-03T13:20:55.203Z,9.27
2022-12-03T13:23:33.199Z,9.07
2022-12-03T13:26:31.746Z,9.12
2022-12-03T13:29:07.272Z,9.17
2022-12-03T13:31:43.411Z,8.79
2022-12-03T13:34:19.252Z,8.50
2022-12-03T13:36:53.546Z,9.19
2022-12-03T13:39:32.544Z,8.81
2022-12-03T13:42:37.609Z,9.21
2022-12-03T13:45:24.861Z,8.72
2022-12-03T13:47:56.233Z,8.75
2022-12-03T13:50:36.715Z,8.91
2022-12-03T13:53:26.049Z,8.87
2022-12-03T13:55:59.076Z,8.41
2022-12-03T13:58:28.795Z,8.59
2022-12-03T14:00:56.676Z,8.80
2022-12-03T14:03:26.771Z,9.10
2022-12-03T14:05:54.367Z,8.79
2022-12-03T14:08:21.998Z,8.79
2022-12-03T14:10:52.098Z,8.61
2022-12-03T14:13:21.892Z,8.94
2022-12-03T14:15:49.896Z,8.87
2022-12-03T14:18:17.550Z,8.85
2022-12-03T14:20:44.960Z,9.23
2022-12-03T14:23:13.072Z,9.35
2022-12-03T14:25:40.579Z,9.12
2022-12-03T14:28:08.822Z,9.29
2022-12-03T14:30:37.009Z,9.06
2022-12-03T14:33:05.763Z,8.89
2022-12-03T14:35:33.165Z,9.02
2022-12-03T14:38:01.082Z,9.09
2022-12-03T14:40:28.533Z,8.77
2022-12-03T14:42:56.082Z,8.79
2022-12-03T14:45:25.163Z,9.05
2022-12-03T14:47:52.701Z,8.85
2022-12-03T14:50:20.321Z,9.10
2022-12-03T14:52:48.341Z,9.10
2022-12-03T14:55:15.975Z,8.96
2022-12-03T14:57:43.503Z,8.98
2022-12-03T15:00:12.133Z,8.72
2022-12-03T15:02:39.956Z,8.55
2022-12-03T15:05:07.910Z,8.73
2022-12-03T15:07:35.917Z,8.70
2022-12-03T15:10:05.769Z,8.43
2022-12-03T15:12:33.413Z,8.69
2022-12-03T15:15:01.266Z,8.33
2022-12-03T15:17:32.160Z,8.64
2022-12-03T15:19:59.858Z,8.76
2022-12-03T15:22:27.955Z,8.98
2022-12-03T15:24:55.551Z,8.08
2022-12-03T15:27:23.502Z,8.41
2022-12-03T15:29:51.734Z,8.56
2022-12-03T15:32:19.523Z,8.68
2022-12-03T15:34:47.224Z,8.66
2022-12-03T15:37:15.049Z,8.64
2022-12-03T15:39:48.151Z,8.77
2022-12-03T15:42:21.582Z,8.84
2022-12-03T15:44:49.054Z,8.56
2022-12-03T15:47:16.817Z,8.77
2022-12-03T15:49:44.424Z,8.52
2022-12-03T15:52:12.048Z,8.43
2022-12-03T15:54:39.954Z,8.59
2022-12-03T15:57:07.538Z,8.63
2022-12-03T15:59:35.118Z,7.81
2022-12-03T16:02:04.190Z,8.03
2022-12-03T16:04:32.147Z,8.21
2022-12-03T16:06:59.994Z,8.27
2022-12-03T16:09:27.899Z,8.34
2022-12-03T16:11:55.715Z,8.26
2022-12-03T16:14:23.156Z,8.18
2022-12-03T16:16:50.784Z,8.43
2022-12-03T16:19:18.804Z,8.41
2022-12-03T16:21:46.830Z,8.44
2022-12-03T16:24:14.525Z,8.41
2022-12-03T16:26:42.219Z,8.41
2022-12-03T16:29:09.663Z,8.41
2022-12-03T16:31:37.380Z,8.60
2022-12-03T16:34:05.108Z,8.81
2022-12-03T16:36:32.596Z,8.60
2022-12-03T16:39:00.087Z,8.40
2022-12-03T16:41:28.024Z,8.38
2022-12-03T16:43:55.754Z,8.55
2022-12-03T16:46:26.614Z,8.68
2022-12-03T16:48:56.467Z,8.44
2022-12-03T16:51:26.972Z,8.60
2022-12-03T16:53:55.077Z,8.44
2022-12-03T16:56:26.032Z,8.31
2022-12-03T16:58:53.565Z,8.49
2022-12-03T17:01:23.201Z,8.48
2022-12-03T17:03:51.123Z,8.39
2022-12-03T17:06:18.867Z,8.48
2022-12-03T17:08:49.889Z,8.43
2022-12-03T17:11:17.947Z,8.57
2022-12-03T17:13:45.962Z,8.70
2022-12-03T17:16:15.963Z,8.43
2022-12-03T17:18:43.667Z,8.02
2022-12-03T17:21:11.409Z,8.24
2022-12-03T17:23:39.396Z,8.44
2022-12-03T17:26:06.849Z,8.22
2022-12-03T17:28:34.401Z,8.24
2022-12-03T17:31:02.330Z,8.10
2022-12-03T17:33:29.892Z,7.94
2022-12-03T17:35:57.514Z,8.13
2022-12-03T17:38:25.400Z,8.26
2022-12-03T17:40:52.889Z,8.09
2022-12-03T17:43:20.346Z,8.31
2022-12-03T17:45:48.177Z,8.33
2022-12-03T17:48:15.642Z,8.18
2022-12-03T17:50:43.323Z,8.16
2022-12-03T17:53:11.365Z,8.04
2022-12-03T17:55:44.542Z,7.93
2022-12-03T17:58:13.457Z,8.15
2022-12-03T18:00:41.076Z,8.08
2022-12-03T18:03:09.298Z,8.07
2022-12-03T18:05:36.846Z,8.19
2022-12-03T18:08:05.074Z,8.13
2022-12-03T18:10:32.843Z,8.03
2022-12-03T18:13:02.233Z,8.31
2022-12-03T18:15:31.310Z,7.81
2022-12-03T18:17:59.212Z,7.64
2022-12-03T18:20:26.884Z,7.76
2022-12-03T18:22:54.377Z,7.98
2022-12-03T18:25:26.155Z,7.90
2022-12-03T18:27:53.712Z,8.06
2022-12-03T18:30:21.822Z,8.07
2022-12-03T18:32:49.780Z,8.12
2022-12-03T18:35:18.080Z,8.15
2022-12-03T18:37:46.094Z,8.15
2022-12-03T18:40:23.026Z,8.00
2022-12-03T18:42:50.875Z,7.98
2022-12-03T18:45:20.897Z,7.81
2022-12-03T18:47:48.536Z,7.90
2022-12-03T18:50:16.545Z,8.05
2022-12-03T18:52:44.159Z,7.83
2022-12-03T18:55:17.782Z,7.37
2022-12-03T18:57:46.020Z,7.68
2022-12-03T19:00:14.374Z,7.31
2022-12-03T19:05:32.175Z,7.74
2022-12-03T19:07:59.994Z,7.92
2022-12-03T19:10:27.582Z,7.41
2022-12-03T19:12:55.672Z,7.29
2022-12-03T19:15:24.207Z,7.55
2022-12-03T19:17:51.689Z,7.52
2022-12-03T19:20:19.843Z,7.38
2022-12-03T19:22:47.271Z,7.31
2022-12-03T19:25:14.914Z,7.53
2022-12-03T19:27:42.697Z,7.73
2022-12-03T19:30:10.689Z,7.72
2022-12-03T19:32:38.243Z,7.38
2022-12-03T19:35:07.571Z,7.56
2022-12-03T19:37:35.189Z,7.53
2022-12-03T19:40:03.113Z,7.37
2022-12-03T19:42:31.278Z,7.51
2022-12-03T19:44:58.857Z,7.63
2022-12-03T19:47:26.438Z,7.56
2022-12-03T19:49:54.401Z,7.48
2022-12-03T19:52:21.976Z,7.83
2022-12-03T19:54:49.520Z,7.84
2022-12-03T19:57:23.089Z,7.82
2022-12-03T19:59:55.517Z,7.98
2022-12-03T20:02:26.735Z,8.03
2022-12-03T20:04:54.753Z,7.97
2022-12-03T20:07:22.336Z,7.78
2022-12-03T20:09:51.426Z,7.75
2022-12-03T20:12:19.350Z,8.02
2022-12-03T20:14:47.631Z,7.92
2022-12-03T20:17:15.310Z,8.12
2022-12-03T20:19:43.068Z,8.07
2022-12-03T20:22:10.511Z,8.03
2022-12-03T20:24:38.127Z,7.93
2022-12-03T20:27:06.150Z,7.88
2022-12-03T20:29:33.742Z,7.90
2022-12-03T20:32:01.358Z,8.01
2022-12-03T20:34:29.256Z,7.87
2022-12-03T20:36:56.747Z,7.98
2022-12-03T20:39:24.691Z,7.99
2022-12-03T20:41:52.556Z,7.88
2022-12-03T20:44:20.074Z,7.87
2022-12-03T20:46:47.499Z,7.79
2022-12-03T20:49:15.471Z,7.51
2022-12-03T20:51:42.941Z,7.74
2022-12-03T20:54:10.386Z,7.79
2022-12-03T20:56:42.151Z,7.82
2022-12-03T20:59:12.910Z,8.08
2022-12-03T21:01:41.545Z,7.91
2022-12-03T21:04:10.763Z,7.69
2022-12-03T21:06:38.312Z,7.80
2022-12-03T21:09:06.865Z,7.78
2022-12-03T21:11:35.927Z,7.45
2022-12-03T21:14:04.244Z,7.81
2022-12-03T21:17:05.928Z,7.79
2022-12-03T21:19:22.780Z,7.23
2022-12-03T21:21:50.895Z,7.38
2022-12-03T21:24:18.399Z,7.55
2022-12-03T21:26:46.036Z,7.67
2022-12-03T21:29:13.911Z,8.02
2022-12-03T21:31:41.280Z,7.67
2022-12-03T21:34:09.000Z,7.55
2022-12-03T21:36:37.088Z,7.88
2022-12-03T21:39:05.413Z,7.83
2022-12-03T21:41:35.204Z,7.90
2022-12-03T21:44:03.757Z,7.76
2022-12-03T21:47:10.838Z,7.56
2022-12-03T21:49:20.458Z,7.66
2022-12-03T21:51:48.590Z,7.24
2022-12-03T21:54:16.232Z,7.56
2022-12-03T21:56:43.916Z,7.75
2022-12-03T21:59:11.616Z,7.66
2022-12-03T22:01:44.001Z,7.73
2022-12-03T22:04:14.561Z,7.54
2022-12-03T22:06:42.134Z,7.55
2022-12-03T22:09:09.633Z,7.35
2022-12-03T22:11:37.624Z,7.76
2022-12-03T22:14:09.126Z,7.33
2022-12-03T22:16:37.024Z,7.61
2022-12-03T22:19:04.545Z,7.65
2022-12-03T22:21:32.109Z,7.63
2022-12-03T22:24:00.220Z,7.98
2022-12-03T22:26:27.787Z,7.72
2022-12-03T22:28:55.582Z,7.25
2022-12-03T22:31:23.397Z,7.65
2022-12-03T22:33:51.020Z,7.71
2022-12-03T22:36:21.647Z,7.74
2022-12-03T22:38:51.156Z,7.73
2022-12-03T22:41:19.120Z,7.57
2022-12-03T22:43:47.545Z,7.43
2022-12-03T22:46:16.578Z,7.43
2022-12-03T22:48:46.116Z,7.62
2022-12-03T22:51:20.216Z,7.57
2022-12-03T22:53:48.592Z,7.66
2022-12-03T22:56:17.278Z,7.53
2022-12-03T22:58:44.880Z,7.49
2022-12-03T23:01:21.981Z,7.16
2022-12-03T23:03:49.991Z,7.72
2022-12-03T23:06:18.664Z,7.54
2022-12-03T23:08:46.466Z,7.55
2022-12-03T23:11:15.520Z,7.54
2022-12-03T23:13:43.597Z,7.50
2022-12-03T23:16:16.180Z,7.70
2022-12-03T23:18:44.285Z,7.34
2022-12-03T23:21:25.415Z,7.10
2022-12-03T23:23:56.744Z,7.15
2022-12-03T23:26:24.513Z,6.82
2022-12-03T23:28:52.024Z,7.33
2022-12-03T23:31:23.515Z,7.32
2022-12-03T23:33:51.915Z,7.47
2022-12-03T23:36:20.747Z,7.36
2022-12-03T23:38:48.228Z,7.46
2022-12-03T23:41:18.401Z,7.71
2022-12-03T23:43:46.251Z,7.49
2022-12-03T23:46:16.575Z,7.80
2022-12-03T23:48:44.457Z,7.51
2022-12-03T23:51:14.703Z,7.62
2022-12-03T23:53:42.437Z,7.66
2022-12-03T23:56:15.697Z,7.79
2022-12-03T23:58:44.371Z,7.60
